EZY49TF EGPE-EGKK
Flight info
| Callsign | EZY49TF |
|---|---|
| Flight time | 1h 23m |
| Altitude | 18000 |
| Route | GUSSI N560 NESDI/N0426F240 N560 ERSON/N0465F310 DCT ELBUS/N0421F230 L612 DCS N57 POL P18 TELBA/N0462F310 L151 KIDLI |
| Aircraft | A320/M-SDE3FGHIRWY/LB1 |
Departure
| Time | 2026-05-09 12:48 |
|---|---|
| Airport | Inverness Airport (EGPE) |
Arrival
| Time | 2026-05-09 14:12 |
|---|---|
| Airport | London Gatwick Airport (EGKK) |
| Time | Latitude | Longitude | Altitude | Speed | Heading |
|---|---|---|---|---|---|
| 2026-05-09 12:34 | 57.54044 | -4.06240 | 36 ft | 0 kts | 279° |
| 2026-05-09 12:44 | 57.54042 | -4.06221 | 35 ft | 2 kts | 279° |
| 2026-05-09 12:44 | 57.54040 | -4.06189 | 35 ft | 2 kts | 277° |
| 2026-05-09 12:44 | 57.54039 | -4.06158 | 34 ft | 2 kts | 225° |
| 2026-05-09 12:45 | 57.54048 | -4.06147 | 32 ft | 0 kts | 188° |
| 2026-05-09 12:46 | 57.54043 | -4.06148 | 34 ft | 1 kts | 187° |
| 2026-05-09 12:46 | 57.54010 | -4.06153 | 35 ft | 7 kts | 185° |
| 2026-05-09 12:46 | 57.53965 | -4.06160 | 34 ft | 6 kts | 185° |
| 2026-05-09 12:47 | 57.53895 | -4.06171 | 34 ft | 11 kts | 185° |
| 2026-05-09 12:47 | 57.53821 | -4.06181 | 33 ft | 10 kts | 182° |
| 2026-05-09 12:47 | 57.53762 | -4.06121 | 33 ft | 10 kts | 122° |
| 2026-05-09 12:47 | 57.53727 | -4.06012 | 33 ft | 9 kts | 121° |
| 2026-05-09 12:48 | 57.53722 | -4.05901 | 32 ft | 10 kts | 61° |
| 2026-05-09 12:48 | 57.53888 | -4.05542 | 35 ft | 78 kts | 49° |
| 2026-05-09 12:48 | 57.54422 | -4.04389 | 56 ft | 151 kts | 51° |
| 2026-05-09 12:48 | 57.55068 | -4.02870 | 893 ft | 146 kts | 52° |
| 2026-05-09 12:49 | 57.55618 | -4.01337 | 1828 ft | 143 kts | 55° |
| 2026-05-09 12:49 | 57.55953 | -3.99535 | 2657 ft | 152 kts | 83° |
| 2026-05-09 12:49 | 57.55732 | -3.97605 | 3458 ft | 162 kts | 117° |
| 2026-05-09 12:49 | 57.54897 | -3.96114 | 4296 ft | 171 kts | 155° |
| 2026-05-09 12:50 | 57.53743 | -3.95714 | 5144 ft | 174 kts | 186° |
| 2026-05-09 12:50 | 57.52536 | -3.96125 | 5978 ft | 180 kts | 198° |
| 2026-05-09 12:50 | 57.51263 | -3.96848 | 6593 ft | 201 kts | 200° |
| 2026-05-09 12:50 | 57.49859 | -3.97720 | 6851 ft | 225 kts | 200° |
| 2026-05-09 12:51 | 57.48289 | -3.98670 | 7152 ft | 249 kts | 200° |
| 2026-05-09 12:51 | 57.46562 | -3.99662 | 7539 ft | 269 kts | 199° |
| 2026-05-09 12:51 | 57.44734 | -4.00660 | 8271 ft | 276 kts | 198° |
| 2026-05-09 12:51 | 57.42875 | -4.01637 | 9109 ft | 279 kts | 197° |
| 2026-05-09 12:52 | 57.40996 | -4.02599 | 9976 ft | 281 kts | 198° |
| 2026-05-09 12:52 | 57.39094 | -4.03557 | 10686 ft | 289 kts | 197° |
| 2026-05-09 12:52 | 57.37071 | -4.04574 | 10921 ft | 313 kts | 198° |
| 2026-05-09 12:52 | 57.34901 | -4.05662 | 11099 ft | 335 kts | 197° |
| 2026-05-09 12:53 | 57.32574 | -4.06828 | 11315 ft | 354 kts | 197° |
| 2026-05-09 12:53 | 57.30170 | -4.08022 | 11904 ft | 360 kts | 197° |
| 2026-05-09 12:53 | 57.27750 | -4.09213 | 12638 ft | 362 kts | 198° |
| 2026-05-09 12:53 | 57.25305 | -4.10417 | 13342 ft | 365 kts | 198° |
| 2026-05-09 12:54 | 57.22835 | -4.11637 | 14036 ft | 367 kts | 198° |
| 2026-05-09 12:54 | 57.20352 | -4.12655 | 14621 ft | 373 kts | 192° |
| 2026-05-09 12:54 | 57.17774 | -4.13306 | 15215 ft | 375 kts | 191° |
| 2026-05-09 12:54 | 57.15177 | -4.13949 | 15821 ft | 378 kts | 191° |
| 2026-05-09 12:55 | 57.12563 | -4.14593 | 16369 ft | 381 kts | 191° |
| 2026-05-09 12:55 | 57.09917 | -4.15245 | 16869 ft | 386 kts | 191° |
| 2026-05-09 12:55 | 57.07243 | -4.15901 | 17417 ft | 389 kts | 191° |
| 2026-05-09 12:55 | 57.04553 | -4.16562 | 17957 ft | 391 kts | 191° |
| 2026-05-09 12:56 | 57.01844 | -4.17230 | 18478 ft | 394 kts | 192° |
| 2026-05-09 12:56 | 56.99118 | -4.17897 | 18949 ft | 396 kts | 192° |
| 2026-05-09 12:56 | 56.96371 | -4.18565 | 19419 ft | 399 kts | 192° |
| 2026-05-09 12:56 | 56.93616 | -4.19238 | 19893 ft | 401 kts | 192° |
| 2026-05-09 12:57 | 56.90841 | -4.19922 | 20351 ft | 404 kts | 192° |
| 2026-05-09 12:57 | 56.88044 | -4.20611 | 20814 ft | 406 kts | 192° |
| 2026-05-09 12:57 | 56.85227 | -4.21302 | 21258 ft | 409 kts | 192° |
| 2026-05-09 12:57 | 56.82406 | -4.21986 | 21710 ft | 411 kts | 192° |
| 2026-05-09 12:58 | 56.79562 | -4.22670 | 22142 ft | 414 kts | 192° |
| 2026-05-09 12:58 | 56.76696 | -4.23363 | 22503 ft | 416 kts | 192° |
| 2026-05-09 12:58 | 56.74798 | -4.23822 | 22805 ft | 417 kts | 192° |
| 2026-05-09 12:58 | 56.71911 | -4.24519 | 23226 ft | 418 kts | 192° |
| 2026-05-09 12:59 | 56.69026 | -4.25220 | 23619 ft | 420 kts | 192° |
| 2026-05-09 12:59 | 56.65163 | -4.26149 | 24105 ft | 423 kts | 192° |
| 2026-05-09 12:59 | 56.62240 | -4.26846 | 24460 ft | 424 kts | 192° |
| 2026-05-09 12:59 | 56.59311 | -4.27547 | 24820 ft | 425 kts | 192° |
| 2026-05-09 13:00 | 56.57321 | -4.28022 | 25040 ft | 426 kts | 192° |
| 2026-05-09 13:00 | 56.54417 | -4.28717 | 25367 ft | 427 kts | 193° |
| 2026-05-09 13:00 | 56.51474 | -4.29427 | 25693 ft | 427 kts | 193° |
| 2026-05-09 13:00 | 56.48521 | -4.30137 | 25998 ft | 428 kts | 192° |
| 2026-05-09 13:01 | 56.45530 | -4.30350 | 26380 ft | 434 kts | 183° |
| 2026-05-09 13:01 | 56.42508 | -4.29762 | 26701 ft | 439 kts | 178° |
| 2026-05-09 13:01 | 56.39479 | -4.29008 | 27030 ft | 440 kts | 179° |
| 2026-05-09 13:01 | 56.36442 | -4.28261 | 27350 ft | 440 kts | 179° |
| 2026-05-09 13:02 | 56.33406 | -4.27527 | 27688 ft | 439 kts | 179° |
| 2026-05-09 13:02 | 56.30366 | -4.26792 | 28161 ft | 437 kts | 179° |
| 2026-05-09 13:02 | 56.27371 | -4.26063 | 28633 ft | 434 kts | 179° |
| 2026-05-09 13:02 | 56.24384 | -4.25341 | 29108 ft | 431 kts | 180° |
| 2026-05-09 13:03 | 56.21417 | -4.24627 | 29491 ft | 429 kts | 179° |
| 2026-05-09 13:03 | 56.18461 | -4.23917 | 29897 ft | 428 kts | 179° |
| 2026-05-09 13:03 | 56.15521 | -4.23212 | 30329 ft | 426 kts | 180° |
| 2026-05-09 13:03 | 56.12583 | -4.22508 | 30700 ft | 424 kts | 180° |
| 2026-05-09 13:04 | 56.09658 | -4.21806 | 31013 ft | 424 kts | 179° |
| 2026-05-09 13:04 | 56.06736 | -4.21105 | 31247 ft | 424 kts | 179° |
| 2026-05-09 13:04 | 56.03801 | -4.20402 | 31297 ft | 426 kts | 180° |
| 2026-05-09 13:05 | 55.97915 | -4.19012 | 31296 ft | 427 kts | 179° |
| 2026-05-09 13:05 | 55.92018 | -4.17616 | 31300 ft | 427 kts | 179° |
| 2026-05-09 13:06 | 55.86151 | -4.16222 | 31297 ft | 428 kts | 179° |
| 2026-05-09 13:06 | 55.80245 | -4.14832 | 31297 ft | 428 kts | 179° |
| 2026-05-09 13:07 | 55.74350 | -4.13456 | 31288 ft | 427 kts | 179° |
| 2026-05-09 13:07 | 55.68451 | -4.12076 | 31257 ft | 428 kts | 179° |
| 2026-05-09 13:08 | 55.62584 | -4.10692 | 31264 ft | 428 kts | 179° |
| 2026-05-09 13:08 | 55.56677 | -4.09307 | 31258 ft | 428 kts | 179° |
| 2026-05-09 13:09 | 55.50773 | -4.07708 | 31261 ft | 434 kts | 172° |
| 2026-05-09 13:09 | 55.45169 | -4.03461 | 31222 ft | 448 kts | 158° |
| 2026-05-09 13:10 | 55.39702 | -3.98125 | 31267 ft | 450 kts | 158° |
| 2026-05-09 13:10 | 55.34216 | -3.92815 | 31271 ft | 449 kts | 158° |
| 2026-05-09 13:11 | 55.28735 | -3.87537 | 31269 ft | 449 kts | 158° |
| 2026-05-09 13:11 | 55.23263 | -3.82287 | 31272 ft | 447 kts | 158° |
| 2026-05-09 13:12 | 55.17815 | -3.77087 | 31261 ft | 445 kts | 157° |
| 2026-05-09 13:12 | 55.12378 | -3.71902 | 31273 ft | 444 kts | 157° |
| 2026-05-09 13:13 | 55.06955 | -3.66741 | 31272 ft | 443 kts | 157° |
| 2026-05-09 13:13 | 55.01568 | -3.61634 | 31267 ft | 443 kts | 158° |
| 2026-05-09 13:14 | 54.96157 | -3.56524 | 31263 ft | 442 kts | 158° |
| 2026-05-09 13:16 | 54.74511 | -3.36236 | 31241 ft | 442 kts | 157° |
| 2026-05-09 13:16 | 54.69332 | -3.30366 | 31209 ft | 448 kts | 148° |
| 2026-05-09 13:17 | 54.64386 | -3.23924 | 31218 ft | 448 kts | 148° |
| 2026-05-09 13:17 | 54.59411 | -3.17469 | 31236 ft | 446 kts | 149° |
| 2026-05-09 13:18 | 54.54450 | -3.11051 | 31250 ft | 445 kts | 149° |
| 2026-05-09 13:18 | 54.49494 | -3.04668 | 31243 ft | 444 kts | 149° |
| 2026-05-09 13:19 | 54.44552 | -2.98327 | 31224 ft | 443 kts | 149° |
| 2026-05-09 13:19 | 54.39614 | -2.92009 | 31218 ft | 442 kts | 149° |
| 2026-05-09 13:20 | 54.34681 | -2.85719 | 31218 ft | 442 kts | 149° |
| 2026-05-09 13:20 | 54.29752 | -2.79446 | 31210 ft | 442 kts | 149° |
| 2026-05-09 13:21 | 54.24807 | -2.73184 | 31209 ft | 442 kts | 149° |
| 2026-05-09 13:21 | 54.19866 | -2.66942 | 31186 ft | 441 kts | 148° |
| 2026-05-09 13:22 | 54.14967 | -2.60774 | 31207 ft | 439 kts | 149° |
| 2026-05-09 13:22 | 54.10063 | -2.54618 | 31213 ft | 437 kts | 149° |
| 2026-05-09 13:23 | 53.97859 | -2.39372 | 31206 ft | 435 kts | 149° |
| 2026-05-09 13:24 | 53.92987 | -2.33300 | 31194 ft | 434 kts | 148° |
| 2026-05-09 13:24 | 53.88116 | -2.27273 | 31184 ft | 433 kts | 149° |
| 2026-05-09 13:25 | 53.83251 | -2.21270 | 31182 ft | 433 kts | 149° |
| 2026-05-09 13:26 | 53.75681 | -2.13192 | 31172 ft | 424 kts | 163° |
| 2026-05-09 13:26 | 53.69990 | -2.11256 | 31150 ft | 416 kts | 181° |
| 2026-05-09 13:27 | 53.64266 | -2.11966 | 31152 ft | 415 kts | 187° |
| 2026-05-09 13:27 | 53.58504 | -2.12896 | 31154 ft | 416 kts | 187° |
| 2026-05-09 13:28 | 53.52738 | -2.13811 | 31153 ft | 416 kts | 187° |
| 2026-05-09 13:28 | 53.46972 | -2.14733 | 31155 ft | 416 kts | 187° |
| 2026-05-09 13:29 | 53.41204 | -2.15657 | 31150 ft | 416 kts | 187° |
| 2026-05-09 13:29 | 53.35471 | -2.16567 | 31150 ft | 416 kts | 187° |
| 2026-05-09 13:30 | 53.29687 | -2.17480 | 31149 ft | 417 kts | 187° |
| 2026-05-09 13:30 | 53.23912 | -2.18388 | 31148 ft | 416 kts | 187° |
| 2026-05-09 13:31 | 53.18131 | -2.19297 | 31140 ft | 418 kts | 186° |
| 2026-05-09 13:31 | 53.12371 | -2.20208 | 31139 ft | 418 kts | 186° |
| 2026-05-09 13:32 | 53.06574 | -2.21116 | 31140 ft | 418 kts | 186° |
| 2026-05-09 13:32 | 52.97870 | -2.22474 | 31121 ft | 419 kts | 186° |
| 2026-05-09 13:33 | 52.92057 | -2.23376 | 31119 ft | 420 kts | 186° |
| 2026-05-09 13:33 | 52.86234 | -2.24329 | 31120 ft | 421 kts | 189° |
| 2026-05-09 13:34 | 52.80513 | -2.26458 | 31126 ft | 422 kts | 193° |
| 2026-05-09 13:34 | 52.74791 | -2.28671 | 31127 ft | 422 kts | 193° |
| 2026-05-09 13:35 | 52.68984 | -2.29945 | 31119 ft | 424 kts | 178° |
| 2026-05-09 13:35 | 52.63224 | -2.27777 | 31116 ft | 430 kts | 159° |
| 2026-05-09 13:36 | 52.58071 | -2.22672 | 31119 ft | 435 kts | 149° |
| 2026-05-09 13:36 | 52.53025 | -2.17168 | 31114 ft | 435 kts | 149° |
| 2026-05-09 13:37 | 52.50506 | -2.14431 | 30779 ft | 436 kts | 149° |
| 2026-05-09 13:37 | 52.47962 | -2.11672 | 30219 ft | 440 kts | 149° |
| 2026-05-09 13:37 | 52.45427 | -2.08922 | 29598 ft | 443 kts | 149° |
| 2026-05-09 13:37 | 52.42815 | -2.06088 | 28966 ft | 446 kts | 149° |
| 2026-05-09 13:38 | 52.40243 | -2.03297 | 28358 ft | 449 kts | 148° |
| 2026-05-09 13:38 | 52.37625 | -2.00463 | 27762 ft | 453 kts | 148° |
| 2026-05-09 13:38 | 52.34990 | -1.97614 | 27174 ft | 455 kts | 148° |
| 2026-05-09 13:38 | 52.32343 | -1.94755 | 26601 ft | 457 kts | 148° |
| 2026-05-09 13:39 | 52.29683 | -1.91891 | 26043 ft | 460 kts | 148° |
| 2026-05-09 13:39 | 52.27006 | -1.89012 | 25503 ft | 463 kts | 148° |
| 2026-05-09 13:39 | 52.24310 | -1.86115 | 24958 ft | 465 kts | 148° |
| 2026-05-09 13:39 | 52.21604 | -1.83208 | 24418 ft | 467 kts | 148° |
| 2026-05-09 13:40 | 52.18883 | -1.80290 | 23905 ft | 467 kts | 148° |
| 2026-05-09 13:40 | 52.16170 | -1.77388 | 23331 ft | 465 kts | 148° |
| 2026-05-09 13:40 | 52.13470 | -1.74508 | 22725 ft | 462 kts | 148° |
| 2026-05-09 13:40 | 52.10822 | -1.71690 | 22134 ft | 458 kts | 148° |
| 2026-05-09 13:41 | 52.08165 | -1.68866 | 21555 ft | 454 kts | 148° |
| 2026-05-09 13:41 | 52.05533 | -1.66066 | 20989 ft | 450 kts | 148° |
| 2026-05-09 13:41 | 52.02922 | -1.63283 | 20407 ft | 447 kts | 148° |
| 2026-05-09 13:41 | 52.00325 | -1.60519 | 19860 ft | 444 kts | 148° |
| 2026-05-09 13:42 | 51.97748 | -1.57791 | 19318 ft | 441 kts | 148° |
| 2026-05-09 13:42 | 51.95183 | -1.55084 | 18792 ft | 438 kts | 148° |
| 2026-05-09 13:42 | 51.92632 | -1.52397 | 18239 ft | 435 kts | 148° |
| 2026-05-09 13:42 | 51.90104 | -1.49738 | 17644 ft | 432 kts | 148° |
| 2026-05-09 13:43 | 51.87591 | -1.47097 | 17062 ft | 429 kts | 148° |
| 2026-05-09 13:43 | 51.85097 | -1.44476 | 16485 ft | 427 kts | 148° |
| 2026-05-09 13:43 | 51.82647 | -1.41903 | 15929 ft | 425 kts | 148° |
| 2026-05-09 13:43 | 51.80172 | -1.39311 | 15380 ft | 422 kts | 148° |
| 2026-05-09 13:44 | 51.77717 | -1.36742 | 15123 ft | 419 kts | 148° |
| 2026-05-09 13:44 | 51.75268 | -1.34180 | 15111 ft | 418 kts | 148° |
| 2026-05-09 13:44 | 51.72821 | -1.31624 | 15112 ft | 419 kts | 148° |
| 2026-05-09 13:44 | 51.70369 | -1.29068 | 15113 ft | 419 kts | 149° |
| 2026-05-09 13:45 | 51.67917 | -1.26520 | 15087 ft | 419 kts | 149° |
| 2026-05-09 13:45 | 51.65460 | -1.23970 | 15086 ft | 420 kts | 149° |
| 2026-05-09 13:45 | 51.63006 | -1.21422 | 15084 ft | 419 kts | 148° |
| 2026-05-09 13:45 | 51.60562 | -1.18886 | 15084 ft | 419 kts | 148° |
| 2026-05-09 13:46 | 51.58108 | -1.16342 | 15084 ft | 419 kts | 148° |
| 2026-05-09 13:46 | 51.55662 | -1.13809 | 15082 ft | 418 kts | 148° |
| 2026-05-09 13:46 | 51.53246 | -1.11310 | 15084 ft | 418 kts | 148° |
| 2026-05-09 13:46 | 51.50800 | -1.08783 | 15086 ft | 417 kts | 149° |
| 2026-05-09 13:47 | 51.48362 | -1.06267 | 15088 ft | 417 kts | 149° |
| 2026-05-09 13:47 | 51.45916 | -1.03749 | 15091 ft | 417 kts | 148° |
| 2026-05-09 13:47 | 51.43474 | -1.01241 | 14931 ft | 416 kts | 148° |
| 2026-05-09 13:47 | 51.41056 | -0.98761 | 14788 ft | 416 kts | 149° |
| 2026-05-09 13:48 | 51.39411 | -0.97073 | 14686 ft | 415 kts | 149° |
| 2026-05-09 13:48 | 51.36185 | -0.93770 | 14494 ft | 415 kts | 148° |
| 2026-05-09 13:48 | 51.34545 | -0.92094 | 14339 ft | 414 kts | 148° |
| 2026-05-09 13:48 | 51.32155 | -0.89652 | 14109 ft | 413 kts | 148° |
| 2026-05-09 13:49 | 51.29737 | -0.87179 | 13888 ft | 411 kts | 148° |
| 2026-05-09 13:49 | 51.27331 | -0.84721 | 13638 ft | 410 kts | 148° |
| 2026-05-09 13:49 | 51.24944 | -0.82290 | 13415 ft | 400 kts | 148° |
| 2026-05-09 13:49 | 51.22642 | -0.79948 | 13166 ft | 386 kts | 148° |
| 2026-05-09 13:50 | 51.20416 | -0.77689 | 12914 ft | 372 kts | 148° |
| 2026-05-09 13:50 | 51.18300 | -0.75542 | 12696 ft | 347 kts | 148° |
| 2026-05-09 13:50 | 51.16316 | -0.73531 | 12463 ft | 331 kts | 148° |
| 2026-05-09 13:50 | 51.14397 | -0.71592 | 12231 ft | 323 kts | 148° |
| 2026-05-09 13:51 | 51.12524 | -0.69698 | 11999 ft | 315 kts | 148° |
| 2026-05-09 13:51 | 51.10693 | -0.67847 | 11776 ft | 308 kts | 148° |
| 2026-05-09 13:51 | 51.08901 | -0.66038 | 11548 ft | 302 kts | 148° |
| 2026-05-09 13:51 | 51.07151 | -0.64267 | 11319 ft | 295 kts | 147° |
| 2026-05-09 13:52 | 51.05604 | -0.62167 | 11096 ft | 292 kts | 131° |
| 2026-05-09 13:52 | 51.04458 | -0.59538 | 10880 ft | 290 kts | 117° |
| 2026-05-09 13:52 | 51.03570 | -0.56676 | 10655 ft | 288 kts | 116° |
| 2026-05-09 13:52 | 51.02683 | -0.53827 | 10419 ft | 286 kts | 116° |
| 2026-05-09 13:53 | 51.01797 | -0.51000 | 10202 ft | 285 kts | 116° |
| 2026-05-09 13:53 | 51.00914 | -0.48185 | 9973 ft | 284 kts | 116° |
| 2026-05-09 13:53 | 51.00033 | -0.45384 | 9717 ft | 282 kts | 116° |
| 2026-05-09 13:53 | 50.99168 | -0.42641 | 9497 ft | 281 kts | 116° |
| 2026-05-09 13:54 | 50.98297 | -0.39885 | 9248 ft | 278 kts | 116° |
| 2026-05-09 13:54 | 50.97430 | -0.37140 | 9010 ft | 277 kts | 116° |
| 2026-05-09 13:54 | 50.96563 | -0.34401 | 8772 ft | 276 kts | 116° |
| 2026-05-09 13:54 | 50.95701 | -0.31678 | 8528 ft | 275 kts | 116° |
| 2026-05-09 13:55 | 50.94861 | -0.28950 | 8295 ft | 275 kts | 111° |
| 2026-05-09 13:55 | 50.94587 | -0.25977 | 7555 ft | 276 kts | 81° |
| 2026-05-09 13:55 | 50.95342 | -0.23210 | 6814 ft | 278 kts | 51° |
| 2026-05-09 13:55 | 50.96885 | -0.21415 | 6052 ft | 280 kts | 20° |
| 2026-05-09 13:56 | 50.98813 | -0.21238 | 5303 ft | 285 kts | 348° |
| 2026-05-09 13:56 | 51.00545 | -0.22765 | 4531 ft | 288 kts | 320° |
| 2026-05-09 13:56 | 51.01878 | -0.25084 | 4109 ft | 276 kts | 309° |
| 2026-05-09 13:56 | 51.02941 | -0.27456 | 4006 ft | 252 kts | 306° |
| 2026-05-09 13:57 | 51.03870 | -0.29670 | 3904 ft | 231 kts | 306° |
| 2026-05-09 13:57 | 51.04735 | -0.31698 | 3775 ft | 215 kts | 307° |
| 2026-05-09 13:57 | 51.05577 | -0.33608 | 3682 ft | 207 kts | 308° |
| 2026-05-09 13:57 | 51.06394 | -0.35413 | 3567 ft | 200 kts | 309° |
| 2026-05-09 13:58 | 51.07218 | -0.37193 | 3417 ft | 200 kts | 309° |
| 2026-05-09 13:58 | 51.08035 | -0.38935 | 3173 ft | 188 kts | 310° |
| 2026-05-09 13:58 | 51.08990 | -0.40138 | 3040 ft | 170 kts | 342° |
| 2026-05-09 13:58 | 51.10101 | -0.40395 | 2992 ft | 159 kts | 11° |
| 2026-05-09 13:59 | 51.11130 | -0.39884 | 2705 ft | 153 kts | 36° |
| 2026-05-09 13:59 | 51.11885 | -0.38771 | 2493 ft | 147 kts | 58° |
| 2026-05-09 13:59 | 51.12273 | -0.37296 | 2311 ft | 145 kts | 79° |
| 2026-05-09 13:59 | 51.12492 | -0.35721 | 2121 ft | 147 kts | 78° |
| 2026-05-09 14:00 | 51.12712 | -0.34149 | 1909 ft | 145 kts | 77° |
| 2026-05-09 14:00 | 51.12783 | -0.33643 | 1857 ft | 144 kts | 77° |
| 2026-05-09 14:00 | 51.13142 | -0.31076 | 1538 ft | 144 kts | 78° |
| 2026-05-09 14:00 | 51.13356 | -0.29538 | 1343 ft | 143 kts | 77° |
| 2026-05-09 14:01 | 51.13570 | -0.28028 | 1115 ft | 137 kts | 77° |
| 2026-05-09 14:01 | 51.13772 | -0.26554 | 906 ft | 137 kts | 75° |
| 2026-05-09 14:01 | 51.13976 | -0.25067 | 774 ft | 138 kts | 76° |
| 2026-05-09 14:01 | 51.14186 | -0.23559 | 622 ft | 143 kts | 76° |
| 2026-05-09 14:02 | 51.14391 | -0.22028 | 406 ft | 141 kts | 75° |
| 2026-05-09 14:02 | 51.14603 | -0.20522 | 223 ft | 138 kts | 74° |
| 2026-05-09 14:02 | 51.14796 | -0.19122 | 405 ft | 142 kts | 75° |
| 2026-05-09 14:02 | 51.15012 | -0.17502 | 1023 ft | 164 kts | 77° |
| 2026-05-09 14:03 | 51.15273 | -0.15556 | 1790 ft | 184 kts | 79° |
| 2026-05-09 14:03 | 51.15506 | -0.13463 | 2286 ft | 204 kts | 92° |
| 2026-05-09 14:03 | 51.15067 | -0.11271 | 2853 ft | 217 kts | 121° |
| 2026-05-09 14:03 | 51.13928 | -0.09726 | 2977 ft | 220 kts | 155° |
| 2026-05-09 14:04 | 51.12406 | -0.09450 | 3005 ft | 225 kts | 188° |
| 2026-05-09 14:04 | 51.11010 | -0.10589 | 3007 ft | 231 kts | 224° |
| 2026-05-09 14:04 | 51.10204 | -0.12791 | 3012 ft | 234 kts | 254° |
| 2026-05-09 14:04 | 51.09863 | -0.15326 | 3008 ft | 235 kts | 260° |
| 2026-05-09 14:05 | 51.09600 | -0.17902 | 3012 ft | 238 kts | 261° |
| 2026-05-09 14:05 | 51.09346 | -0.20505 | 3009 ft | 238 kts | 262° |
| 2026-05-09 14:05 | 51.09087 | -0.23109 | 3008 ft | 240 kts | 261° |
| 2026-05-09 14:05 | 51.08826 | -0.25758 | 3008 ft | 244 kts | 261° |
| 2026-05-09 14:06 | 51.08567 | -0.28388 | 3011 ft | 244 kts | 261° |
| 2026-05-09 14:06 | 51.08308 | -0.31045 | 3009 ft | 244 kts | 261° |
| 2026-05-09 14:06 | 51.08047 | -0.33720 | 3013 ft | 245 kts | 261° |
| 2026-05-09 14:06 | 51.07788 | -0.36388 | 3013 ft | 243 kts | 261° |
| 2026-05-09 14:07 | 51.07531 | -0.39048 | 3012 ft | 244 kts | 261° |
| 2026-05-09 14:07 | 51.07281 | -0.41735 | 3014 ft | 246 kts | 262° |
| 2026-05-09 14:07 | 51.07026 | -0.44405 | 3013 ft | 244 kts | 262° |
| 2026-05-09 14:07 | 51.07165 | -0.47057 | 2997 ft | 237 kts | 297° |
| 2026-05-09 14:08 | 51.08220 | -0.48840 | 3006 ft | 218 kts | 340° |
| 2026-05-09 14:08 | 51.09652 | -0.48996 | 3011 ft | 205 kts | 24° |
| 2026-05-09 14:08 | 51.10729 | -0.47633 | 3012 ft | 200 kts | 63° |
| 2026-05-09 14:08 | 51.11132 | -0.45538 | 3027 ft | 202 kts | 78° |
| 2026-05-09 14:09 | 51.11435 | -0.43306 | 2966 ft | 210 kts | 78° |
| 2026-05-09 14:09 | 51.11752 | -0.41020 | 2750 ft | 212 kts | 78° |
| 2026-05-09 14:09 | 51.12072 | -0.38731 | 2491 ft | 213 kts | 77° |
| 2026-05-09 14:09 | 51.12394 | -0.36432 | 2208 ft | 213 kts | 78° |
| 2026-05-09 14:10 | 51.13032 | -0.31867 | 1638 ft | 210 kts | 77° |
| 2026-05-09 14:10 | 51.13343 | -0.29632 | 1374 ft | 201 kts | 78° |
| 2026-05-09 14:10 | 51.13629 | -0.27575 | 1106 ft | 178 kts | 76° |
| 2026-05-09 14:11 | 51.13880 | -0.25765 | 882 ft | 157 kts | 77° |
| 2026-05-09 14:11 | 51.14104 | -0.24152 | 680 ft | 143 kts | 75° |
| 2026-05-09 14:11 | 51.14312 | -0.22620 | 510 ft | 140 kts | 75° |
| 2026-05-09 14:11 | 51.14517 | -0.21135 | 301 ft | 136 kts | 73° |
| 2026-05-09 14:12 | 51.14720 | -0.19708 | 211 ft | 126 kts | 75° |
| 2026-05-09 14:12 | 51.14882 | -0.18585 | 201 ft | 80 kts | 77° |
| 2026-05-09 14:12 | 51.14966 | -0.18012 | 211 ft | 32 kts | 65° |
| 2026-05-09 14:12 | 51.15045 | -0.17825 | 212 ft | 9 kts | 55° |
| 2026-05-09 14:13 | 51.15074 | -0.17775 | 211 ft | 6 kts | 36° |
| 2026-05-09 14:14 | 51.15258 | -0.17816 | 216 ft | 0 kts | 340° |
| 2026-05-09 14:15 | 51.15269 | -0.17772 | 215 ft | 11 kts | 99° |
| 2026-05-09 14:15 | 51.15290 | -0.17556 | 216 ft | 26 kts | 77° |
| 2026-05-09 14:15 | 51.15342 | -0.17364 | 209 ft | 14 kts | 7° |
| 2026-05-09 14:15 | 51.15437 | -0.17398 | 207 ft | 13 kts | 347° |
| 2026-05-09 14:16 | 51.15529 | -0.17439 | 210 ft | 14 kts | 326° |
| 2026-05-09 14:16 | 51.15531 | -0.17566 | 214 ft | 9 kts | 258° |
| 2026-05-09 14:16 | 51.15526 | -0.17616 | 205 ft | 0 kts | 270° |
| 2026-05-09 14:16 | 51.15526 | -0.17617 | 205 ft | 0 kts | 277° |
| 2026-05-09 14:17 | 51.15532 | -0.17620 | 205 ft | 3 kts | 326° |
| 2026-05-09 14:17 | 51.15555 | -0.17608 | 207 ft | 5 kts | 5° |
| 2026-05-09 14:17 | 51.15588 | -0.17614 | 215 ft | 0 kts | 346° |